Time;durP1;ratioP1;P1;durP2;ratioP2;P2;SDS_P1;SDS_P2;PMS_P1;PMS_P2;Temp;Humidity;BMP_temperature;BMP_pressure;BME280_temperature;BME280_humidity;BME280_pressure;Samples;Min_cycle;Max_cycle;Signal;HPM_P1;HPM_P2
2022/07/16 00:01:23;;;;;;;3.60;1.90;;;13.70;99.90;;;;;;4950408;28;20468;-76
2022/07/16 00:03:54;;;;;;;1.92;1.40;;;13.80;99.90;;;;;;4953105;28;20028;-76
2022/07/16 00:06:22;;;;;;;3.72;1.90;;;13.80;99.90;;;;;;4955757;28;20443;-76
2022/07/16 00:08:47;;;;;;;2.97;1.95;;;13.80;99.90;;;;;;4955323;28;20046;-76
2022/07/16 00:11:13;;;;;;;2.03;1.67;;;13.70;99.90;;;;;;4955410;29;20393;-76
2022/07/16 00:13:39;;;;;;;2.72;2.10;;;13.60;99.90;;;;;;4956005;28;20055;-75
2022/07/16 00:16:07;;;;;;;3.28;2.00;;;13.60;99.90;;;;;;4955275;28;20023;-76
2022/07/16 00:21:18;;;;;;;6.50;2.38;;;13.70;99.90;;;;;;4953144;28;20030;-84
2022/07/16 00:23:44;;;;;;;3.30;2.10;;;13.90;99.90;;;;;;4953629;28;20031;-82
2022/07/16 00:26:09;;;;;;;3.03;2.22;;;13.90;99.90;;;;;;4955138;28;20034;-82
2022/07/16 00:28:35;;;;;;;3.85;2.35;;;13.90;99.90;;;;;;4955005;28;20465;-82
2022/07/16 00:31:01;;;;;;;3.47;2.33;;;13.90;99.90;;;;;;4971080;28;20035;-82
2022/07/16 00:33:26;;;;;;;4.97;2.35;;;13.80;99.90;;;;;;4954819;28;20058;-82
2022/07/16 00:35:52;;;;;;;3.10;2.00;;;13.80;99.90;;;;;;4954968;28;20042;-82
2022/07/16 00:38:18;;;;;;;2.78;2.22;;;13.70;99.90;;;;;;4955867;28;20027;-83
2022/07/16 00:40:44;;;;;;;2.50;1.95;;;13.70;99.90;;;;;;4956215;28;20038;-83
2022/07/16 00:43:11;;;;;;;3.75;2.30;;;13.70;99.90;;;;;;4956087;28;20050;-83
2022/07/16 00:45:38;;;;;;;5.00;2.55;;;13.80;99.90;;;;;;4964973;28;20031;-83
2022/07/16 00:48:04;;;;;;;4.68;2.40;;;13.90;99.90;;;;;;4958392;28;20544;-84
2022/07/16 00:50:30;;;;;;;2.33;2.00;;;14.10;99.90;;;;;;4955620;28;20032;-84
2022/07/16 00:52:58;;;;;;;3.42;2.03;;;14.20;99.90;;;;;;4956019;28;20031;-84
2022/07/16 00:55:23;;;;;;;3.53;2.33;;;14.30;99.90;;;;;;4961384;28;20031;-84
2022/07/16 00:57:49;;;;;;;2.42;2.22;;;14.40;99.90;;;;;;4955535;28;20035;-85
2022/07/16 01:00:15;;;;;;;5.55;2.03;;;14.40;99.90;;;;;;4955795;28;20465;-84
2022/07/16 01:02:41;;;;;;;2.20;2.00;;;14.40;99.90;;;;;;4947692;28;20063;-85
2022/07/16 01:05:07;;;;;;;2.28;1.65;;;14.40;99.90;;;;;;4955429;28;20121;-84
2022/07/16 01:07:34;;;;;;;3.65;1.98;;;14.40;99.90;;;;;;4954671;28;20019;-84
2022/07/16 01:10:05;;;;;;;3.35;1.73;;;14.30;99.90;;;;;;4955511;28;20027;-84
2022/07/16 01:12:31;;;;;;;2.10;1.90;;;14.30;99.90;;;;;;4955082;28;20027;-85
2022/07/16 01:14:57;;;;;;;3.85;1.77;;;14.30;99.90;;;;;;4954929;28;20464;-84
2022/07/16 01:17:23;;;;;;;4.55;2.00;;;14.20;99.90;;;;;;4958656;28;20031;-85
2022/07/16 01:19:49;;;;;;;3.05;2.28;;;14.20;99.90;;;;;;4990340;23;20066;-76
2022/07/16 01:22:20;;;;;;;3.58;2.03;;;14.10;99.90;;;;;;4972936;28;20074;-76
2022/07/16 01:24:46;;;;;;;4.97;1.98;;;14.00;99.90;;;;;;4974074;28;20461;-76
2022/07/16 01:27:12;;;;;;;4.60;2.30;;;13.90;99.90;;;;;;4981163;28;20018;-76
2022/07/16 01:29:38;;;;;;;3.30;2.03;;;13.80;99.90;;;;;;4974579;28;20106;-76
2022/07/16 01:32:04;;;;;;;2.28;1.67;;;13.70;99.90;;;;;;4972713;28;20035;-76
2022/07/16 01:34:31;;;;;;;2.63;2.42;;;13.70;99.90;;;;;;4974208;28;20022;-77
2022/07/16 01:37:00;;;;;;;3.08;2.10;;;13.50;99.90;;;;;;4974626;28;20371;-76
2022/07/16 01:39:27;;;;;;;3.97;2.20;;;13.40;99.90;;;;;;4974230;28;20055;-76
2022/07/16 01:41:55;;;;;;;4.53;2.05;;;13.50;99.90;;;;;;4974041;28;20405;-76
2022/07/16 01:44:23;;;;;;;2.67;2.10;;;13.40;99.90;;;;;;4974454;28;20023;-76
2022/07/16 01:46:49;;;;;;;2.75;1.98;;;13.40;99.90;;;;;;4974077;28;20487;-74
2022/07/16 01:49:15;;;;;;;2.58;1.98;;;13.40;99.90;;;;;;4973191;28;20061;-77
2022/07/16 01:51:41;;;;;;;1.92;1.80;;;13.30;99.90;;;;;;4973801;28;20034;-76
2022/07/16 01:54:07;;;;;;;4.05;2.50;;;13.20;99.90;;;;;;4974125;28;20081;-76
2022/07/16 01:56:32;;;;;;;3.08;1.77;;;13.20;99.90;;;;;;4973998;28;20478;-77
2022/07/16 01:58:58;;;;;;;2.50;2.15;;;13.20;99.90;;;;;;4974004;28;20117;-76
2022/07/16 02:01:24;;;;;;;2.28;1.98;;;13.20;99.90;;;;;;4973611;28;20027;-77
2022/07/16 02:03:50;;;;;;;4.93;2.45;;;13.10;99.90;;;;;;4973438;28;20027;-76
2022/07/16 02:06:16;;;;;;;2.53;2.33;;;13.00;99.90;;;;;;4973539;28;20027;-76
2022/07/16 02:08:42;;;;;;;3.25;2.53;;;13.00;99.90;;;;;;4973375;28;20101;-77
2022/07/16 02:11:07;;;;;;;3.63;2.47;;;13.00;99.90;;;;;;4973283;28;20034;-76
2022/07/16 02:13:34;;;;;;;2.33;2.13;;;13.00;99.90;;;;;;4979926;28;20431;-74
2022/07/16 02:16:00;;;;;;;3.10;2.58;;;13.00;99.90;;;;;;4973532;28;20039;-76
2022/07/16 06:19:08;;;;;;;2.10;1.50;;;15.30;99.90;;;;;;5741159;22;19921;-75
2022/07/16 06:21:33;;;;;;;2.10;1.88;;;15.40;99.90;;;;;;4973785;28;20026;-75
2022/07/16 06:23:59;;;;;;;1.73;1.48;;;15.60;99.90;;;;;;4973529;28;20038;-76
2022/07/16 06:26:25;;;;;;;1.67;1.25;;;15.90;99.90;;;;;;4971143;28;20368;-75
2022/07/16 06:28:51;;;;;;;1.80;1.42;;;16.40;99.90;;;;;;4973488;28;20034;-75
2022/07/16 06:31:17;;;;;;;5.82;1.58;;;16.80;99.90;;;;;;4973212;28;20166;-76
2022/07/16 06:33:42;;;;;;;2.05;1.08;;;17.20;99.90;;;;;;4973226;28;20023;-76
2022/07/16 06:36:08;;;;;;;1.42;1.30;;;17.70;99.90;;;;;;4973220;28;20027;-76
2022/07/16 06:38:34;;;;;;;1.65;1.42;;;18.00;99.90;;;;;;4973127;28;20098;-77
2022/07/16 06:40:59;;;;;;;1.83;1.33;;;18.00;99.90;;;;;;4973453;28;20372;-76
2022/07/16 06:43:25;;;;;;;1.95;1.33;;;17.90;99.90;;;;;;4973304;28;20030;-76
2022/07/16 06:45:51;;;;;;;1.70;1.10;;;18.00;99.90;;;;;;4972861;28;20047;-76
2022/07/16 06:48:18;;;;;;;2.92;1.00;;;17.90;99.90;;;;;;4983725;28;20018;-76
2022/07/16 06:50:44;;;;;;;1.73;1.15;;;18.00;99.90;;;;;;4973026;28;20040;-76
2022/07/16 06:53:10;;;;;;;1.27;1.17;;;18.00;99.90;;;;;;4973385;28;20106;-76
2022/07/16 06:55:37;;;;;;;1.88;1.30;;;17.80;99.90;;;;;;4973404;28;20106;-76
2022/07/16 06:58:03;;;;;;;2.20;1.17;;;17.70;99.90;;;;;;4973286;28;20109;-76
2022/07/16 07:00:29;;;;;;;4.05;1.25;;;17.60;99.90;;;;;;4973206;28;20631;-76
2022/07/16 07:02:54;;;;;;;1.98;0.90;;;17.60;99.90;;;;;;4973063;28;20105;-76
2022/07/16 07:05:20;;;;;;;1.83;1.25;;;17.60;99.90;;;;;;4972906;28;20105;-76
2022/07/16 07:07:46;;;;;;;1.45;1.17;;;17.50;99.90;;;;;;4972711;28;20030;-76
2022/07/16 07:10:12;;;;;;;2.30;1.17;;;17.60;99.90;;;;;;4972619;28;20081;-76
2022/07/16 07:12:38;;;;;;;1.88;1.20;;;17.60;99.90;;;;;;4972731;28;20030;-76
2022/07/16 07:15:04;;;;;;;0.77;0.77;;;17.60;99.90;;;;;;4973125;28;20027;-76
2022/07/16 07:17:30;;;;;;;1.20;1.10;;;17.60;99.90;;;;;;4975496;28;20026;-76
2022/07/16 09:19:19;;;;;;;1.08;0.60;;;29.70;43.00;;;;;;5819083;23;20502;-78
2022/07/16 09:22:06;;;;;;;0.57;0.43;;;30.20;40.90;;;;;;4995545;28;20057;-79
2022/07/16 09:24:44;;;;;;;0.52;0.50;;;30.80;39.20;;;;;;4962700;28;20123;-78
2022/07/16 09:27:22;;;;;;;1.40;0.52;;;30.50;37.50;;;;;;4996099;28;20026;-78
2022/07/16 09:29:52;;;;;;;0.82;0.50;;;31.00;37.30;;;;;;4989750;28;20038;-79
2022/07/16 09:32:36;;;;;;;0.50;0.43;;;30.90;37.20;;;;;;4991016;28;20042;-79
2022/07/16 09:35:04;;;;;;;1.67;0.60;;;31.20;37.40;;;;;;4986733;28;20554;-79
2022/07/16 09:37:51;;;;;;;1.23;0.57;;;31.20;35.30;;;;;;4980755;28;20110;-79
2022/07/16 09:40:33;;;;;;;1.27;0.60;;;31.30;38.40;;;;;;4985094;28;20033;-79
2022/07/16 09:43:01;;;;;;;0.88;0.77;;;31.40;35.90;;;;;;4974495;28;20514;-79
2022/07/16 09:45:27;;;;;;;1.13;0.60;;;30.20;36.10;;;;;;4957108;28;20515;-79
2022/07/16 09:47:53;;;;;;;0.60;0.60;;;30.30;37.80;;;;;;4974932;28;20038;-79
2022/07/16 09:50:19;;;;;;;0.70;0.50;;;31.20;38.60;;;;;;4979921;28;20026;-79
2022/07/16 09:52:45;;;;;;;0.55;0.40;;;31.90;38.00;;;;;;4974398;28;20416;-79
2022/07/16 09:55:10;;;;;;;2.45;0.68;;;32.90;36.40;;;;;;4974174;28;20110;-80
2022/07/16 09:57:37;;;;;;;1.17;0.77;;;33.00;34.40;;;;;;4974046;28;20420;-79
2022/07/16 10:00:07;;;;;;;0.93;0.80;;;33.60;32.30;;;;;;4973741;28;20030;-79
2022/07/16 10:02:33;;;;;;;0.97;0.80;;;33.60;34.60;;;;;;4974130;28;20030;-80
2022/07/16 10:04:59;;;;;;;1.55;0.70;;;34.10;33.50;;;;;;4974019;28;20081;-79
2022/07/16 10:07:25;;;;;;;1.33;0.65;;;34.60;30.30;;;;;;4974258;28;20022;-80
2022/07/16 10:09:51;;;;;;;0.82;0.60;;;34.60;30.80;;;;;;4956728;28;20578;-80
2022/07/16 10:12:19;;;;;;;1.67;0.80;;;35.00;30.30;;;;;;4974150;28;20460;-80
2022/07/16 10:14:53;;;;;;;0.75;0.68;;;34.70;31.30;;;;;;4980637;28;20033;-79
2022/07/16 10:17:21;;;;;;;0.70;0.70;;;34.10;31.10;;;;;;4973931;28;20018;-79
2022/07/16 11:19:27;;;;;;;4.63;0.80;;;37.80;28.00;;;;;;5718528;22;20058;-78
2022/07/16 11:21:58;;;;;;;0.70;0.45;;;36.80;27.90;;;;;;4983323;28;20698;-79
2022/07/16 11:24:26;;;;;;;1.52;0.50;;;36.60;28.90;;;;;;4981765;28;20074;-79
2022/07/16 11:26:52;;;;;;;1.75;0.30;;;36.30;28.90;;;;;;4978899;28;20037;-79
2022/07/16 11:29:20;;;;;;;0.88;0.50;;;36.70;29.80;;;;;;4978249;28;20073;-78
2022/07/16 11:31:47;;;;;;;0.80;0.50;;;36.80;29.20;;;;;;4970427;28;20727;-79
2022/07/16 11:34:13;;;;;;;0.70;0.45;;;36.70;28.10;;;;;;4953110;28;20086;-79
2022/07/16 11:36:42;;;;;;;1.15;0.50;;;35.40;29.00;;;;;;4971601;28;20027;-78
2022/07/16 11:39:13;;;;;;;1.95;0.40;;;35.40;30.80;;;;;;4969139;28;20082;-79
2022/07/16 11:41:41;;;;;;;2.33;0.40;;;36.10;28.90;;;;;;4968971;28;20491;-78
2022/07/16 11:44:08;;;;;;;1.92;0.35;;;37.00;29.20;;;;;;4970979;28;20027;-78
2022/07/16 11:46:42;;;;;;;0.65;0.30;;;38.20;27.10;;;;;;4970912;28;20022;-78
2022/07/16 11:49:08;;;;;;;2.03;0.70;;;38.10;28.40;;;;;;4965823;28;20041;-78
2022/07/16 11:51:41;;;;;;;3.35;0.68;;;38.80;27.20;;;;;;4967964;28;20431;-78
2022/07/16 11:54:07;;;;;;;0.38;0.32;;;39.20;26.90;;;;;;4968503;28;20054;-78
2022/07/16 11:56:37;;;;;;;1.15;0.30;;;39.80;26.10;;;;;;4971205;28;20026;-79
2022/07/16 11:59:23;;;;;;;0.40;0.30;;;40.10;26.70;;;;;;4972422;28;20027;-78
2022/07/16 12:02:08;;;;;;;2.25;0.50;;;40.30;25.90;;;;;;4957121;28;20045;-80
2022/07/16 12:04:36;;;;;;;1.42;0.30;;;39.40;25.30;;;;;;4974811;28;20467;-78
2022/07/16 12:07:05;;;;;;;0.88;0.30;;;39.30;25.40;;;;;;4974147;28;20031;-80
2022/07/16 12:09:37;;;;;;;0.50;0.40;;;38.60;25.90;;;;;;4970377;28;20042;-78
2022/07/16 12:12:06;;;;;;;1.00;0.40;;;38.80;26.30;;;;;;4974653;28;20022;-78
2022/07/16 12:15:00;;;;;;;1.17;0.60;;;39.20;26.00;;;;;;4973857;28;20031;-78
2022/07/16 12:17:49;;;;;;;0.73;0.38;;;39.00;26.20;;;;;;4971982;28;20019;-78
2022/07/16 13:19:48;;;;;;;0.77;0.30;;;43.20;22.80;;;;;;5566930;23;20421;-77
2022/07/16 13:22:14;;;;;;;0.75;0.25;;;42.20;22.40;;;;;;4980703;28;20031;-77
2022/07/16 13:24:40;;;;;;;1.30;0.30;;;42.70;23.50;;;;;;4974726;28;20019;-77
2022/07/16 13:27:06;;;;;;;0.20;0.20;;;42.50;22.40;;;;;;4974891;28;20030;-78
2022/07/16 13:29:32;;;;;;;0.35;0.17;;;42.80;24.00;;;;;;4967178;28;20019;-77
2022/07/16 13:31:58;;;;;;;1.23;0.22;;;43.10;23.30;;;;;;4955402;28;20046;-77
2022/07/16 13:34:23;;;;;;;0.47;0.40;;;43.60;22.10;;;;;;4955456;28;20106;-77
2022/07/16 13:36:49;;;;;;;0.75;0.30;;;43.40;22.30;;;;;;4955571;28;20109;-77
2022/07/16 13:39:16;;;;;;;0.50;0.30;;;42.70;22.60;;;;;;4955232;28;20102;-78
2022/07/16 13:41:41;;;;;;;1.02;0.40;;;42.00;22.70;;;;;;4955480;28;20675;-77
2022/07/16 13:44:07;;;;;;;0.40;0.30;;;42.10;24.10;;;;;;4955254;28;20098;-80
2022/07/16 13:46:33;;;;;;;1.27;0.40;;;42.20;22.30;;;;;;4955474;28;20038;-77
2022/07/16 13:48:59;;;;;;;0.50;0.50;;;41.80;22.90;;;;;;4956070;28;20428;-77
2022/07/16 13:51:24;;;;;;;0.30;0.30;;;42.00;22.80;;;;;;4960377;28;20019;-76
2022/07/16 13:53:50;;;;;;;1.55;0.60;;;41.80;22.60;;;;;;4954995;28;20031;-77
2022/07/16 13:56:17;;;;;;;0.88;0.43;;;41.80;22.40;;;;;;4955129;28;20031;-77
2022/07/16 13:58:42;;;;;;;0.45;0.20;;;42.00;22.60;;;;;;4954630;28;20082;-77
2022/07/16 14:01:08;;;;;;;0.85;0.30;;;42.00;22.60;;;;;;4961532;28;20027;-78
2022/07/16 14:03:34;;;;;;;0.28;0.28;;;41.90;22.20;;;;;;4954978;28;20432;-77
2022/07/16 14:06:03;;;;;;;2.58;0.50;;;42.00;22.00;;;;;;4954935;28;20477;-78
2022/07/16 14:08:28;;;;;;;0.70;0.20;;;43.10;22.90;;;;;;4954816;28;20019;-77
2022/07/16 14:10:55;;;;;;;1.67;0.30;;;42.80;21.70;;;;;;4955284;28;20110;-77
2022/07/16 14:13:21;;;;;;;0.28;0.20;;;41.50;23.20;;;;;;4954860;28;20388;-77
2022/07/16 14:15:47;;;;;;;0.40;0.40;;;41.40;24.20;;;;;;4954830;28;20028;-78
2022/07/16 14:18:13;;;;;;;0.35;0.30;;;41.80;23.20;;;;;;4954955;28;20570;-78
2022/07/16 14:20:41;;;;;;;0.90;0.30;;;41.40;22.50;;;;;;4960197;28;20046;-77
2022/07/16 14:23:08;;;;;;;0.40;0.30;;;39.90;24.20;;;;;;4936500;28;20448;-78
2022/07/16 14:25:36;;;;;;;1.40;0.40;;;40.90;23.50;;;;;;4955023;28;20435;-77
2022/07/16 14:28:02;;;;;;;0.47;0.28;;;41.30;22.70;;;;;;4954688;28;20023;-77
2022/07/16 14:30:28;;;;;;;1.42;0.40;;;41.20;22.30;;;;;;4954536;28;20027;-77
2022/07/16 14:32:54;;;;;;;1.60;0.30;;;40.90;22.50;;;;;;4954569;28;20015;-78
2022/07/16 14:35:20;;;;;;;1.20;0.60;;;41.30;22.90;;;;;;4954240;28;20023;-77
2022/07/16 14:37:46;;;;;;;0.20;0.20;;;41.90;22.70;;;;;;4954393;28;20035;-78
2022/07/16 14:40:15;;;;;;;0.68;0.22;;;41.00;22.60;;;;;;4954292;28;20228;-77
2022/07/16 14:42:42;;;;;;;0.82;0.10;;;40.70;24.10;;;;;;4954129;28;20080;-78
2022/07/16 14:45:11;;;;;;;0.55;0.20;;;41.40;23.80;;;;;;4954072;28;20634;-78
2022/07/16 14:47:37;;;;;;;0.95;0.20;;;41.90;22.80;;;;;;4953815;28;20056;-78
2022/07/16 14:50:04;;;;;;;1.60;0.20;;;41.10;22.70;;;;;;4959754;28;20027;-78
2022/07/16 14:52:29;;;;;;;1.77;0.30;;;41.30;23.60;;;;;;4954382;28;20015;-78
2022/07/16 14:54:55;;;;;;;0.90;0.10;;;41.50;23.10;;;;;;4954045;28;20031;-78
2022/07/16 14:57:21;;;;;;;0.28;0.20;;;41.00;23.00;;;;;;4954106;28;20027;-77
2022/07/16 14:59:47;;;;;;;0.60;0.10;;;39.80;22.50;;;;;;4954141;28;20038;-77
2022/07/16 15:02:13;;;;;;;1.85;0.38;;;40.10;24.20;;;;;;4954208;28;20032;-77
2022/07/16 15:04:39;;;;;;;0.82;0.20;;;40.60;22.30;;;;;;4953731;28;20038;-77
2022/07/16 15:07:05;;;;;;;0.88;0.30;;;40.90;22.70;;;;;;4937097;28;20076;-78
2022/07/16 15:09:42;;;;;;;0.47;0.30;;;39.60;22.80;;;;;;4953552;28;20025;-77
2022/07/16 15:12:08;;;;;;;0.30;0.20;;;39.10;24.80;;;;;;4965131;28;20511;-76
2022/07/16 15:14:35;;;;;;;1.00;0.28;;;39.40;24.00;;;;;;4955620;28;20047;-78
2022/07/16 15:17:01;;;;;;;0.63;0.30;;;38.90;24.80;;;;;;4954178;28;20027;-77
2022/07/16 15:19:27;;;;;;;0.80;0.20;;;38.80;24.40;;;;;;4957736;28;20027;-77
2022/07/16 15:21:52;;;;;;;0.63;0.20;;;39.10;24.20;;;;;;4954371;28;20045;-77
2022/07/16 15:24:18;;;;;;;1.30;0.30;;;38.50;24.20;;;;;;4954422;28;20035;-77
2022/07/16 15:26:44;;;;;;;0.50;0.30;;;38.60;24.60;;;;;;4968870;28;20054;-76
2022/07/16 15:29:10;;;;;;;0.52;0.20;;;38.40;24.60;;;;;;4956077;28;20016;-76
2022/07/16 15:31:39;;;;;;;0.68;0.30;;;37.30;24.80;;;;;;4953597;28;20031;-77
2022/07/16 15:34:05;;;;;;;0.60;0.20;;;37.40;26.50;;;;;;4948762;28;20038;-77
2022/07/16 15:36:31;;;;;;;0.50;0.30;;;38.40;26.00;;;;;;4960882;28;20019;-77
2022/07/16 15:38:57;;;;;;;0.38;0.20;;;37.90;24.50;;;;;;4958272;28;20023;-77
2022/07/16 15:41:23;;;;;;;1.25;0.22;;;37.60;25.10;;;;;;4958647;28;20035;-76
2022/07/16 15:43:49;;;;;;;0.60;0.20;;;36.80;26.40;;;;;;4959010;28;20495;-77
2022/07/16 15:46:15;;;;;;;0.57;0.57;;;37.40;26.20;;;;;;4958574;28;20488;-77
2022/07/16 15:48:40;;;;;;;1.95;0.50;;;37.40;26.10;;;;;;4959214;28;20031;-77
2022/07/16 15:51:07;;;;;;;0.20;0.20;;;36.70;26.30;;;;;;4965105;28;20451;-76
2022/07/16 15:53:32;;;;;;;0.50;0.20;;;36.10;26.30;;;;;;4959787;28;20042;-76
2022/07/16 15:55:59;;;;;;;2.22;0.43;;;35.30;27.10;;;;;;4959532;28;20477;-77
2022/07/16 15:58:25;;;;;;;0.88;0.13;;;35.00;27.00;;;;;;4966204;28;20476;-76
2022/07/16 16:00:51;;;;;;;0.32;0.25;;;34.50;28.00;;;;;;4961543;28;20546;-76
2022/07/16 16:03:17;;;;;;;0.40;0.40;;;33.70;28.40;;;;;;4963690;28;20485;-77
2022/07/16 16:05:45;;;;;;;1.08;0.30;;;32.40;29.00;;;;;;4959127;28;20054;-76
2022/07/16 16:08:11;;;;;;;0.63;0.30;;;31.00;30.60;;;;;;4959761;28;20024;-76
2022/07/16 16:10:36;;;;;;;0.40;0.30;;;29.80;35.30;;;;;;4959350;28;20030;-75
2022/07/16 16:13:03;;;;;;;0.50;0.20;;;29.20;33.10;;;;;;4959225;28;20023;-76
2022/07/16 16:15:29;;;;;;;0.80;0.25;;;28.50;36.00;;;;;;4964699;28;20047;-76
2022/07/16 16:17:55;;;;;;;0.60;0.22;;;28.20;35.20;;;;;;4975682;28;20074;-76
2022/07/16 16:20:24;;;;;;;3.50;0.30;;;28.30;37.60;;;;;;4970182;28;20023;-76
2022/07/16 16:22:49;;;;;;;1.27;0.25;;;28.20;38.00;;;;;;4959297;28;20027;-76
2022/07/16 16:25:15;;;;;;;0.45;0.22;;;28.10;38.90;;;;;;4959554;28;20020;-76
2022/07/16 16:27:41;;;;;;;0.90;0.30;;;27.80;37.30;;;;;;4959538;28;20074;-76
2022/07/16 16:30:08;;;;;;;0.77;0.30;;;27.50;36.70;;;;;;4941784;28;20432;-76
2022/07/16 16:32:34;;;;;;;0.30;0.30;;;27.40;39.30;;;;;;4959157;28;20023;-75
2022/07/16 16:35:00;;;;;;;2.80;0.30;;;27.30;37.70;;;;;;4958732;28;20035;-75
2022/07/16 16:37:26;;;;;;;0.73;0.43;;;27.50;37.90;;;;;;4959197;28;20023;-76
2022/07/16 16:39:52;;;;;;;0.50;0.20;;;27.40;41.40;;;;;;4959184;28;20034;-76
2022/07/16 16:42:20;;;;;;;0.38;0.13;;;27.30;38.00;;;;;;4959182;28;20725;-76
2022/07/16 16:44:45;;;;;;;0.40;0.17;;;27.00;40.00;;;;;;4957519;28;20023;-76
2022/07/16 16:47:11;;;;;;;0.73;0.28;;;26.90;39.60;;;;;;4956714;28;20062;-75
2022/07/16 16:49:37;;;;;;;1.65;0.35;;;26.70;39.40;;;;;;4962469;28;20091;-75
2022/07/16 16:52:04;;;;;;;1.70;1.25;;;26.40;40.20;;;;;;4973387;28;20030;-75
2022/07/16 16:54:29;;;;;;;0.38;0.30;;;26.30;40.50;;;;;;4958513;28;20029;-75
2022/07/16 16:56:55;;;;;;;0.43;0.40;;;26.20;41.80;;;;;;4939283;28;20023;-75
2022/07/16 16:59:21;;;;;;;0.90;0.35;;;26.40;40.20;;;;;;4955668;28;20376;-75
2022/07/16 17:01:47;;;;;;;0.50;0.30;;;26.30;43.60;;;;;;4956600;28;20041;-76
2022/07/16 17:04:14;;;;;;;1.20;0.20;;;26.20;40.60;;;;;;4956302;28;20469;-75
2022/07/16 17:06:41;;;;;;;0.55;0.30;;;25.90;41.70;;;;;;4955965;28;20023;-75
2022/07/16 17:09:11;;;;;;;1.17;0.47;;;25.60;42.00;;;;;;4955797;28;20046;-75
2022/07/16 17:11:37;;;;;;;0.82;0.38;;;25.60;42.20;;;;;;4955858;28;20110;-75
2022/07/16 17:14:03;;;;;;;3.15;0.50;;;25.50;45.10;;;;;;4955808;28;20071;-75
2022/07/16 17:16:29;;;;;;;0.55;0.30;;;25.70;47.00;;;;;;4955779;28;20031;-76
2022/07/16 17:18:55;;;;;;;0.55;0.30;;;26.00;45.30;;;;;;4955886;28;20027;-75
2022/07/16 17:21:21;;;;;;;1.75;0.50;;;26.10;42.00;;;;;;4960938;28;20150;-76
2022/07/16 17:23:46;;;;;;;1.55;0.20;;;26.10;42.60;;;;;;4955695;28;20070;-75
2022/07/16 17:26:12;;;;;;;2.10;0.82;;;26.00;43.10;;;;;;4955522;28;20019;-76
2022/07/16 17:28:38;;;;;;;2.15;0.40;;;25.90;43.70;;;;;;4938396;29;20451;-75
2022/07/16 17:31:04;;;;;;;2.05;0.30;;;25.70;44.50;;;;;;4955173;28;20583;-75
2022/07/16 17:33:30;;;;;;;0.40;0.35;;;25.70;44.80;;;;;;4955317;28;20025;-75
2022/07/16 17:35:55;;;;;;;2.22;0.40;;;25.60;45.70;;;;;;4955172;28;20117;-75
2022/07/16 17:38:22;;;;;;;1.60;0.32;;;25.60;47.20;;;;;;4955619;28;20437;-75
2022/07/16 17:40:48;;;;;;;0.65;0.30;;;25.50;46.40;;;;;;4955418;28;20035;-75
2022/07/16 17:43:14;;;;;;;0.40;0.38;;;25.40;46.50;;;;;;4955363;28;20113;-75
2022/07/16 17:45:40;;;;;;;0.35;0.30;;;25.30;48.10;;;;;;4955345;28;20027;-75
2022/07/16 17:48:07;;;;;;;0.43;0.32;;;25.10;47.90;;;;;;4955441;28;20015;-75
2022/07/16 17:50:32;;;;;;;1.05;0.40;;;25.10;51.10;;;;;;4960757;28;20023;-75
2022/07/16 17:52:59;;;;;;;1.15;0.38;;;25.00;49.70;;;;;;4955328;28;20403;-75
2022/07/16 17:55:26;;;;;;;0.30;0.30;;;25.00;49.80;;;;;;4954923;28;20026;-75
2022/07/16 17:57:52;;;;;;;1.77;0.40;;;24.90;51.60;;;;;;4954171;28;20083;-75
2022/07/16 18:00:18;;;;;;;2.63;0.90;;;24.80;51.40;;;;;;4954941;28;20058;-76
2022/07/16 18:02:44;;;;;;;1.42;0.32;;;24.70;52.10;;;;;;4955302;28;20019;-75
2022/07/16 18:05:11;;;;;;;1.75;0.45;;;24.60;53.40;;;;;;4954683;28;20031;-75
2022/07/16 18:07:38;;;;;;;0.65;0.50;;;24.60;52.10;;;;;;4954751;28;20023;-75
2022/07/16 18:10:05;;;;;;;2.58;0.30;;;24.50;53.30;;;;;;4954347;28;20468;-75
2022/07/16 18:12:31;;;;;;;2.35;1.20;;;24.30;54.90;;;;;;4954638;28;20055;-75
2022/07/16 18:14:57;;;;;;;1.30;0.50;;;24.10;54.30;;;;;;4954922;28;20058;-75
2022/07/16 18:17:23;;;;;;;2.60;0.40;;;23.90;56.50;;;;;;4954953;28;20058;-75
2022/07/16 18:19:49;;;;;;;0.73;0.57;;;23.80;59.70;;;;;;4960061;28;20038;-75
2022/07/16 18:22:15;;;;;;;2.13;0.50;;;23.70;60.00;;;;;;4954678;28;20023;-75
2022/07/16 18:24:41;;;;;;;0.40;0.40;;;23.50;60.10;;;;;;4954801;28;20023;-74
2022/07/16 18:27:08;;;;;;;3.50;0.77;;;23.30;62.60;;;;;;4937452;28;20039;-75
2022/07/16 18:29:35;;;;;;;1.75;0.60;;;23.10;64.80;;;;;;4954474;28;20011;-75
2022/07/16 18:32:01;;;;;;;2.33;0.98;;;23.00;69.60;;;;;;4954576;28;20027;-75
2022/07/16 18:34:26;;;;;;;2.70;0.73;;;22.90;70.90;;;;;;4954564;28;20034;-75
2022/07/16 18:36:52;;;;;;;3.05;1.00;;;22.70;74.30;;;;;;4954116;28;20031;-75
2022/07/16 18:39:18;;;;;;;1.15;0.50;;;22.60;74.60;;;;;;4961097;28;20019;-74
2022/07/16 18:41:44;;;;;;;2.08;0.90;;;22.60;74.20;;;;;;4954059;28;20162;-75
2022/07/16 18:44:11;;;;;;;2.40;0.70;;;22.40;71.20;;;;;;4954342;28;20106;-75
2022/07/16 18:46:37;;;;;;;2.67;0.80;;;22.40;67.70;;;;;;4954200;28;20393;-74
2022/07/16 18:49:04;;;;;;;0.90;0.50;;;22.30;67.90;;;;;;4954800;28;20522;-74
2022/07/16 18:51:30;;;;;;;0.73;0.50;;;22.20;69.50;;;;;;4953927;28;20058;-74
2022/07/16 18:53:56;;;;;;;1.73;0.77;;;22.10;66.30;;;;;;4954014;28;20050;-74
2022/07/16 18:56:22;;;;;;;1.60;0.60;;;21.90;66.90;;;;;;4954516;28;20031;-75
2022/07/16 18:58:48;;;;;;;4.13;1.88;;;21.70;66.60;;;;;;4954441;28;20054;-74
2022/07/16 19:01:14;;;;;;;1.90;1.08;;;21.60;67.40;;;;;;4953946;28;20067;-73
2022/07/16 19:03:40;;;;;;;2.78;0.77;;;21.40;66.90;;;;;;4954243;28;20508;-74
2022/07/16 19:06:06;;;;;;;1.33;0.45;;;21.30;68.20;;;;;;4953785;28;20027;-74
2022/07/16 19:08:32;;;;;;;3.67;1.50;;;21.10;66.80;;;;;;4953532;28;20469;-74
2022/07/16 19:10:57;;;;;;;2.95;1.45;;;21.00;67.10;;;;;;4962985;28;20584;-75
2022/07/16 19:13:23;;;;;;;2.90;1.33;;;20.80;64.30;;;;;;4959729;28;20037;-75
2022/07/16 19:15:56;;;;;;;2.22;1.00;;;20.70;67.90;;;;;;4962814;28;20030;-76
2022/07/16 19:18:23;;;;;;;2.22;1.33;;;20.70;64.80;;;;;;4953919;28;20026;-74
2022/07/16 19:20:49;;;;;;;9.55;2.70;;;20.60;66.60;;;;;;4958665;28;20031;-75
2022/07/16 19:23:14;;;;;;;2.90;1.08;;;20.40;69.50;;;;;;4953283;28;20023;-74
2022/07/16 19:25:41;;;;;;;1.08;0.60;;;20.30;69.20;;;;;;4959991;28;20035;-76
2022/07/16 19:28:07;;;;;;;2.83;0.88;;;20.20;70.70;;;;;;4953214;28;20035;-76
2022/07/16 19:30:33;;;;;;;1.98;0.65;;;20.00;71.00;;;;;;4953129;28;20078;-76
2022/07/16 19:32:59;;;;;;;1.67;0.70;;;19.90;72.90;;;;;;4953133;28;20024;-77
2022/07/16 19:35:25;;;;;;;1.20;0.55;;;19.80;78.00;;;;;;4953023;28;20527;-76
2022/07/16 19:37:50;;;;;;;1.42;0.60;;;19.70;76.90;;;;;;4953275;28;20034;-76
2022/07/16 19:40:16;;;;;;;1.25;0.60;;;19.50;81.60;;;;;;4953307;28;20046;-76
2022/07/16 19:42:43;;;;;;;2.85;0.80;;;19.40;87.40;;;;;;4953721;28;20023;-76
2022/07/16 19:45:10;;;;;;;2.67;0.50;;;19.30;85.00;;;;;;4956294;28;20018;-77
2022/07/16 19:47:36;;;;;;;6.50;1.00;;;19.20;90.30;;;;;;4962093;28;20057;-77
2022/07/16 19:50:07;;;;;;;2.78;0.85;;;19.00;91.70;;;;;;4962970;28;20059;-77
2022/07/16 19:52:34;;;;;;;2.67;1.25;;;19.00;96.60;;;;;;4959731;28;20038;-76
2022/07/16 19:58:02;;;;;;;1.40;0.50;;;18.70;97.10;;;;;;4953142;28;20506;-76
2022/07/16 20:00:29;;;;;;;2.38;0.80;;;18.60;99.90;;;;;;4952793;28;20019;-76
2022/07/16 20:02:57;;;;;;;2.20;0.60;;;18.40;99.90;;;;;;4953443;28;20023;-76
2022/07/16 20:05:22;;;;;;;2.38;0.70;;;18.30;99.90;;;;;;4953194;28;20023;-76
2022/07/16 20:07:48;;;;;;;2.03;0.80;;;18.20;99.90;;;;;;4952837;28;20030;-76
2022/07/16 20:10:14;;;;;;;3.22;0.70;;;18.20;99.90;;;;;;4959828;28;20031;-76
2022/07/16 20:12:39;;;;;;;0.77;0.60;;;18.00;99.90;;;;;;4953196;28;20109;-76
2022/07/16 20:15:06;;;;;;;1.58;0.80;;;17.90;99.90;;;;;;4953421;28;20055;-76
2022/07/16 20:17:31;;;;;;;1.90;0.65;;;17.90;99.90;;;;;;4963519;28;20019;-78
2022/07/16 20:20:00;;;;;;;1.83;0.88;;;17.80;99.90;;;;;;4981000;23;20054;-80
2022/07/16 20:22:26;;;;;;;5.00;1.02;;;17.70;99.90;;;;;;4980009;28;20622;-80
2022/07/16 20:24:52;;;;;;;3.75;0.63;;;17.60;99.90;;;;;;4976889;28;20555;-80
2022/07/16 20:27:18;;;;;;;3.03;0.70;;;17.50;99.90;;;;;;4983869;28;20093;-79
2022/07/16 20:29:43;;;;;;;3.22;0.77;;;17.40;99.90;;;;;;4977185;28;20032;-79
2022/07/16 20:32:09;;;;;;;3.75;0.75;;;17.30;99.90;;;;;;4961989;28;20109;-80
2022/07/16 20:34:35;;;;;;;2.88;0.98;;;17.20;99.90;;;;;;4954240;28;20672;-79
2022/07/16 20:37:01;;;;;;;2.97;0.98;;;17.20;99.90;;;;;;4952351;28;20031;-79
2022/07/16 20:39:26;;;;;;;3.65;1.00;;;17.10;99.90;;;;;;4940028;28;20411;-79
2022/07/16 20:41:52;;;;;;;1.92;0.90;;;17.10;99.90;;;;;;4962931;28;20134;-79
2022/07/16 20:44:18;;;;;;;2.08;1.02;;;17.00;99.90;;;;;;4955868;28;20052;-79
2022/07/16 20:46:44;;;;;;;1.08;0.60;;;16.80;99.90;;;;;;4952552;28;20035;-79
2022/07/16 20:49:10;;;;;;;2.78;0.88;;;16.80;99.90;;;;;;4953971;28;20031;-80
2022/07/16 20:51:36;;;;;;;3.53;0.77;;;16.70;99.90;;;;;;4958898;28;20046;-80